Time;durP1;ratioP1;P1;durP2;ratioP2;P2;SDS_P1;SDS_P2;PMS_P1;PMS_P2;Temp;Humidity;BMP_temperature;BMP_pressure;BME280_temperature;BME280_humidity;BME280_pressure;Samples;Min_cycle;Max_cycle;Signal;HPM_P1;HPM_P2
2023/01/19 00:01:32;;;;;;;;;;;;;;;;;;5110574;28;20468;-79
2023/01/19 00:03:58;;;;;;;;;;;;;;;;;;5110951;28;19908;-80
2023/01/19 00:06:31;;;;;;;;;;;;;;;;;;5117845;28;19964;-78
2023/01/19 00:08:57;;;;;;;;;;;;;;;;;;5102586;28;19903;-78
2023/01/19 00:11:23;;;;;;;;;;;;;;;;;;5119466;28;20269;-79
2023/01/19 00:13:49;;;;;;;;;;;;;;;;;;5098671;28;19957;-78
2023/01/19 00:16:17;;;;;;;;;;;;;;;;;;5081608;28;19908;-78
2023/01/19 00:18:46;;;;;;;;;;;;;;;;;;5094998;28;19907;-79
2023/01/19 00:21:13;;;;;;;;;;;;;;;;;;5102150;28;19971;-78
2023/01/19 00:23:39;;;;;;;;;;;;;;;;;;5119261;28;19922;-79
2023/01/19 00:26:05;;;;;;;;;;;;;;;;;;5099957;28;19907;-79
2023/01/19 00:28:33;;;;;;;;;;;;;;;;;;5100131;28;19914;-80
2023/01/19 00:30:59;;;;;;;;;;;;;;;;;;5118797;28;19908;-79
2023/01/19 00:33:33;;;;;;;;;;;;;;;;;;5101422;28;19915;-78
2023/01/19 00:35:59;;;;;;;;;;;;;;;;;;5100539;28;19904;-79
2023/01/19 00:38:24;;;;;;;;;;;;;;;;;;5100492;28;20014;-79
2023/01/19 00:40:53;;;;;;;;;;;;;;;;;;5119614;28;19911;-80
2023/01/19 00:43:18;;;;;;;;;;;;;;;;;;5119791;28;19903;-80
2023/01/19 00:45:47;;;;;;;;;;;;;;;;;;5100232;28;19962;-79
2023/01/19 00:48:13;;;;;;;;;;;;;;;;;;5115990;28;20370;-78
2023/01/19 00:50:38;;;;;;;;;;;;;;;;;;5117099;28;19930;-78
2023/01/19 00:53:04;;;;;;;;;;;;;;;;;;5106943;28;19908;-79
2023/01/19 00:55:31;;;;;;;;;;;;;;;;;;5118848;28;19904;-79
2023/01/19 00:57:57;;;;;;;;;;;;;;;;;;5098701;28;19912;-79
2023/01/19 01:00:23;;;;;;;;;;;;;;;;;;5117797;28;19922;-79
2023/01/19 01:02:49;;;;;;;;;;;;;;;;;;5097813;28;19911;-79
2023/01/19 01:05:15;;;;;;;;;;;;;;;;;;5116878;28;19914;-78
2023/01/19 01:07:43;;;;;;;;;;;;;;;;;;5117210;28;19904;-79
2023/01/19 01:10:09;;;;;;;;;;;;;;;;;;5100005;28;19903;-78
2023/01/19 01:12:35;;;;;;;;;;;;;;;;;;5118691;28;19957;-80
2023/01/19 01:15:01;;;;;;;;;;;;;;;;;;5100796;28;20376;-78
2023/01/19 01:17:26;;;;;;;;;;;;;;;;;;5098139;28;19907;-78
2023/01/19 01:19:52;;;;;;;;;;;;;;;;;;5117610;28;19912;-78
2023/01/19 01:22:18;;;;;;;;;;;;;;;;;;5121425;28;19908;-78
2023/01/19 01:24:44;;;;;;;;;;;;;;;;;;5105257;28;19961;-78
2023/01/19 01:27:10;;;;;;;;;;;;;;;;;;5117674;28;19908;-78
2023/01/19 01:29:38;;;;;;;;;;;;;;;;;;5115312;28;20327;-79
2023/01/19 01:32:04;;;;;;;;;;;;;;;;;;5114064;28;19908;-79
2023/01/19 01:34:30;;;;;;;;;;;;;;;;;;5094865;28;20366;-79
2023/01/19 01:36:56;;;;;;;;;;;;;;;;;;5106390;28;19907;-78
2023/01/19 01:39:24;;;;;;;;;;;;;;;;;;5101305;28;20005;-79
2023/01/19 01:41:50;;;;;;;;;;;;;;;;;;5120485;28;19908;-79
2023/01/19 01:44:16;;;;;;;;;;;;;;;;;;5094573;28;20007;-78
2023/01/19 01:46:42;;;;;;;;;;;;;;;;;;5119549;28;19949;-79
2023/01/19 01:49:08;;;;;;;;;;;;;;;;;;5120349;28;20432;-79
2023/01/19 01:51:34;;;;;;;;;;;;;;;;;;5102855;28;20122;-78
2023/01/19 01:54:00;;;;;;;;;;;;;;;;;;5101265;28;19918;-78
2023/01/19 01:56:33;;;;;;;;;;;;;;;;;;5101272;28;19908;-78
2023/01/19 01:58:59;;;;;;;;;;;;;;;;;;5120423;28;19919;-78
2023/01/19 02:04:10;;;;;;;;;;;;;;;;;;5120171;28;19915;-78
2023/01/19 02:14:50;;;;;;;;;;;;;;;;;;5110970;28;19915;-79
2023/01/19 02:17:15;;;;;;;;;;;;;;;;;;5109535;28;19908;-80
2023/01/19 02:19:41;;;;;;;;;;;;;;;;;;5092544;28;19919;-79
2023/01/19 02:22:07;;;;;;;;;;;;;;;;;;5099585;28;20273;-79
2023/01/19 02:24:33;;;;;;;;;;;;;;;;;;5110162;28;19903;-78
2023/01/19 02:27:01;;;;;;;;;;;;;;;;;;5119215;28;19934;-79
2023/01/19 02:29:27;;;;;;;;;;;;;;;;;;5098594;28;19969;-79
2023/01/19 02:31:55;;;;;;;;;;;;;;;;;;5117939;28;19907;-79
2023/01/19 02:34:21;;;;;;;;;;;;;;;;;;5119496;28;19908;-79
2023/01/19 02:36:47;;;;;;;;;;;;;;;;;;5119858;28;19914;-79
2023/01/19 02:39:13;;;;;;;;;;;;;;;;;;5119335;28;19908;-79
2023/01/19 02:41:39;;;;;;;;;;;;;;;;;;5118889;28;19908;-79
2023/01/19 02:44:05;;;;;;;;;;;;;;;;;;5118086;28;19913;-78
2023/01/19 02:46:30;;;;;;;;;;;;;;;;;;5100483;28;19907;-79
2023/01/19 02:48:56;;;;;;;;;;;;;;;;;;5127307;28;19911;-78
2023/01/19 02:51:22;;;;;;;;;;;;;;;;;;5124055;28;19907;-79
2023/01/19 02:53:48;;;;;;;;;;;;;;;;;;5101400;28;19908;-77
2023/01/19 02:56:16;;;;;;;;;;;;;;;;;;5115008;28;19911;-77
2023/01/19 02:58:42;;;;;;;;;;;;;;;;;;5106820;28;19919;-79
2023/01/19 03:01:08;;;;;;;;;;;;;;;;;;5113808;28;20005;-77
2023/01/19 03:03:34;;;;;;;;;;;;;;;;;;5096074;28;19943;-77
2023/01/19 03:06:02;;;;;;;;;;;;;;;;;;5098761;28;19908;-77
2023/01/19 03:08:28;;;;;;;;;;;;;;;;;;5094935;28;19908;-77
2023/01/19 03:10:55;;;;;;;;;;;;;;;;;;5113655;28;19960;-77
2023/01/19 03:13:21;;;;;;;;;;;;;;;;;;5114222;28;19915;-77
2023/01/19 03:15:47;;;;;;;;;;;;;;;;;;5109552;28;19912;-77
2023/01/19 03:18:13;;;;;;;;;;;;;;;;;;5112848;28;20369;-79
2023/01/19 03:20:39;;;;;;;;;;;;;;;;;;5119840;28;20061;-77
2023/01/19 03:23:05;;;;;;;;;;;;;;;;;;5105231;28;19963;-77
2023/01/19 03:25:31;;;;;;;;;;;;;;;;;;5083052;28;19908;-78
2023/01/19 03:27:57;;;;;;;;;;;;;;;;;;5112956;28;19907;-77
2023/01/19 03:30:23;;;;;;;;;;;;;;;;;;5113969;28;19926;-77
2023/01/19 03:32:48;;;;;;;;;;;;;;;;;;5112919;28;19911;-77
2023/01/19 03:35:14;;;;;;;;;;;;;;;;;;5106595;28;19908;-77
2023/01/19 03:37:40;;;;;;;;;;;;;;;;;;5085076;28;19958;-77
2023/01/19 03:40:06;;;;;;;;;;;;;;;;;;5093969;28;19911;-77
2023/01/19 03:42:32;;;;;;;;;;;;;;;;;;5095316;28;20022;-77
2023/01/19 03:44:58;;;;;;;;;;;;;;;;;;5113797;28;19904;-77
2023/01/19 03:47:24;;;;;;;;;;;;;;;;;;5094567;28;19908;-77
2023/01/19 03:49:50;;;;;;;;;;;;;;;;;;5094596;28;19915;-77
2023/01/19 03:52:16;;;;;;;;;;;;;;;;;;5094484;28;19947;-77
2023/01/19 03:54:42;;;;;;;;;;;;;;;;;;5112711;28;20330;-77
2023/01/19 03:57:08;;;;;;;;;;;;;;;;;;5094155;28;19915;-77
2023/01/19 03:59:37;;;;;;;;;;;;;;;;;;5110607;28;19954;-77
2023/01/19 04:02:03;;;;;;;;;;;;;;;;;;5096638;28;19961;-77
2023/01/19 04:04:29;;;;;;;;;;;;;;;;;;5115119;28;20251;-79
2023/01/19 04:06:54;;;;;;;;;;;;;;;;;;5115728;28;19990;-77
2023/01/19 04:09:20;;;;;;;;;;;;;;;;;;5086782;28;19914;-77
2023/01/19 04:11:46;;;;;;;;;;;;;;;;;;5112950;28;19914;-77
2023/01/19 04:14:12;;;;;;;;;;;;;;;;;;5094631;28;19908;-77
2023/01/19 04:16:38;;;;;;;;;;;;;;;;;;5096689;28;19907;-77
2023/01/19 04:19:04;;;;;;;;;;;;;;;;;;5112506;28;20211;-79
2023/01/19 04:21:30;;;;;;;;;;;;;;;;;;5114063;28;20032;-77
2023/01/19 04:23:56;;;;;;;;;;;;;;;;;;5113458;28;19907;-79
2023/01/19 04:26:24;;;;;;;;;;;;;;;;;;5098847;28;19908;-77
2023/01/19 04:28:50;;;;;;;;;;;;;;;;;;5111529;28;19911;-77
2023/01/19 04:31:18;;;;;;;;;;;;;;;;;;5113092;28;19911;-77
2023/01/19 04:33:46;;;;;;;;;;;;;;;;;;5113636;28;19904;-77
2023/01/19 04:36:12;;;;;;;;;;;;;;;;;;5111432;28;19998;-77
2023/01/19 04:38:40;;;;;;;;;;;;;;;;;;5095142;28;19961;-77
2023/01/19 04:41:06;;;;;;;;;;;;;;;;;;5093769;28;20369;-77
2023/01/19 04:43:32;;;;;;;;;;;;;;;;;;5093665;28;19915;-77
2023/01/19 04:45:58;;;;;;;;;;;;;;;;;;5094929;28;19908;-77
2023/01/19 04:48:24;;;;;;;;;;;;;;;;;;5092738;28;19915;-77
2023/01/19 04:50:50;;;;;;;;;;;;;;;;;;5113265;28;19915;-77
2023/01/19 04:53:17;;;;;;;;;;;;;;;;;;5115226;28;19911;-78
2023/01/19 04:55:43;;;;;;;;;;;;;;;;;;5108579;28;19946;-77
2023/01/19 04:58:09;;;;;;;;;;;;;;;;;;5112757;28;19919;-77
2023/01/19 05:00:34;;;;;;;;;;;;;;;;;;5093247;28;20440;-77
2023/01/19 05:03:00;;;;;;;;;;;;;;;;;;5102404;28;19963;-77
2023/01/19 05:05:26;;;;;;;;;;;;;;;;;;5094794;28;19908;-78
2023/01/19 05:07:52;;;;;;;;;;;;;;;;;;5089983;28;20214;-77
2023/01/19 05:10:25;;;;;;;;;;;;;;;;;;5113066;28;20361;-77
2023/01/19 05:12:51;;;;;;;;;;;;;;;;;;5096168;28;20342;-77
2023/01/19 05:15:20;;;;;;;;;;;;;;;;;;5100556;28;20049;-77
2023/01/19 05:17:55;;;;;;;;;;;;;;;;;;;;;
2023/01/19 05:20:22;;;;;;;;;;;;;;;;;;5121684;28;19917;-77
2023/01/19 05:22:50;;;;;;;;;;;;;;;;;;5124644;28;19943;-77
2023/01/19 05:25:16;;;;;;;;;;;;;;;;;;5119589;28;19904;-77
2023/01/19 05:27:42;;;;;;;;;;;;;;;;;;5119671;28;20289;-77
2023/01/19 05:30:10;;;;;;;;;;;;;;;;;;5119394;28;19925;-78
2023/01/19 05:32:38;;;;;;;;;;;;;;;;;;5086113;28;19904;-78
2023/01/19 05:35:04;;;;;;;;;;;;;;;;;;5094899;28;19912;-77
2023/01/19 05:37:31;;;;;;;;;;;;;;;;;;5117458;28;19957;-78
2023/01/19 05:39:57;;;;;;;;;;;;;;;;;;5111722;28;19911;-78
2023/01/19 05:42:23;;;;;;;;;;;;;;;;;;5116202;28;19998;-78
2023/01/19 05:44:51;;;;;;;;;;;;;;;;;;5117421;28;20277;-78
2023/01/19 05:47:17;;;;;;;;;;;;;;;;;;5092751;28;19998;-78
2023/01/19 05:49:43;;;;;;;;;;;;;;;;;;5086189;28;19942;-78
2023/01/19 05:52:09;;;;;;;;;;;;;;;;;;5106287;28;20357;-78
2023/01/19 05:54:35;;;;;;;;;;;;;;;;;;5118797;28;19945;-78
2023/01/19 05:57:01;;;;;;;;;;;;;;;;;;5115110;28;19907;-78
2023/01/19 05:59:27;;;;;;;;;;;;;;;;;;5085777;28;19923;-78
2023/01/19 06:01:55;;;;;;;;;;;;;;;;;;5095899;28;20335;-77
2023/01/19 06:04:21;;;;;;;;;;;;;;;;;;5096195;28;19912;-77
2023/01/19 06:06:47;;;;;;;;;;;;;;;;;;5120637;28;20308;-77
2023/01/19 06:09:16;;;;;;;;;;;;;;;;;;5115043;28;19907;-78
2023/01/19 06:11:41;;;;;;;;;;;;;;;;;;5101421;28;19961;-77
2023/01/19 06:14:07;;;;;;;;;;;;;;;;;;5115214;28;20007;-77
2023/01/19 06:16:35;;;;;;;;;;;;;;;;;;5104632;28;20391;-78
2023/01/19 06:19:09;;;;;;;;;;;;;;;;;;5111317;28;20316;-78
2023/01/19 06:21:34;;;;;;;;;;;;;;;;;;5114484;28;19999;-79
2023/01/19 06:24:00;;;;;;;;;;;;;;;;;;5114250;28;20333;-79
2023/01/19 06:26:26;;;;;;;;;;;;;;;;;;5108668;28;19906;-79
2023/01/19 06:28:52;;;;;;;;;;;;;;;;;;5114889;28;19908;-79
2023/01/19 06:31:20;;;;;;;;;;;;;;;;;;5093764;28;19933;-80
2023/01/19 06:33:46;;;;;;;;;;;;;;;;;;5090372;28;19916;-80
2023/01/19 06:36:12;;;;;;;;;;;;;;;;;;5095781;28;20012;-78
2023/01/19 06:38:39;;;;;;;;;;;;;;;;;;5106591;28;19954;-79
2023/01/19 06:41:07;;;;;;;;;;;;;;;;;;5088718;28;19935;-78
2023/01/19 06:43:35;;;;;;;;;;;;;;;;;;5077582;28;19904;-79
2023/01/19 06:46:02;;;;;;;;;;;;;;;;;;5085245;28;19947;-80
2023/01/19 06:48:28;;;;;;;;;;;;;;;;;;5097869;28;19910;-79
2023/01/19 06:50:56;;;;;;;;;;;;;;;;;;5115571;28;20281;-78
2023/01/19 06:53:22;;;;;;;;;;;;;;;;;;5115947;28;19904;-78
2023/01/19 06:55:48;;;;;;;;;;;;;;;;;;5097243;28;20006;-78
2023/01/19 06:58:14;;;;;;;;;;;;;;;;;;5115616;28;20337;-79
2023/01/19 07:00:40;;;;;;;;;;;;;;;;;;5097618;28;20002;-79
2023/01/19 07:03:08;;;;;;;;;;;;;;;;;;5115126;28;19903;-78
2023/01/19 07:05:34;;;;;;;;;;;;;;;;;;5114893;28;19904;-79
2023/01/19 07:08:00;;;;;;;;;;;;;;;;;;5105339;28;19954;-79
2023/01/19 07:10:26;;;;;;;;;;;;;;;;;;5086601;28;19955;-78
2023/01/19 07:12:52;;;;;;;;;;;;;;;;;;5095760;28;19994;-80
2023/01/19 07:15:21;;;;;;;;;;;;;;;;;;5077287;28;19904;-77
2023/01/19 07:17:49;;;;;;;;;;;;;;;;;;5080739;28;19908;-79
2023/01/19 07:20:16;;;;;;;;;;;;;;;;;;5116106;28;19912;-78
2023/01/19 07:22:47;;;;;;;;;;;;;;;;;;5082061;28;20290;-79
2023/01/19 07:25:13;;;;;;;;;;;;;;;;;;5100831;28;19974;-79
2023/01/19 07:27:39;;;;;;;;;;;;;;;;;;5115176;28;19987;-79
2023/01/19 07:30:07;;;;;;;;;;;;;;;;;;5115280;28;19907;-80
2023/01/19 07:32:36;;;;;;;;;;;;;;;;;;5096268;28;20270;-79
2023/01/19 07:35:01;;;;;;;;;;;;;;;;;;5114498;28;19951;-78
2023/01/19 07:37:27;;;;;;;;;;;;;;;;;;5115529;28;19914;-78
2023/01/19 07:39:53;;;;;;;;;;;;;;;;;;5116478;28;19933;-77
2023/01/19 07:42:22;;;;;;;;;;;;;;;;;;5110649;28;20432;-77
2023/01/19 07:44:47;;;;;;;;;;;;;;;;;;5075275;28;20352;-77
2023/01/19 07:47:14;;;;;;;;;;;;;;;;;;5097996;28;19907;-77
2023/01/19 07:49:40;;;;;;;;;;;;;;;;;;5106573;28;20374;-77
2023/01/19 07:52:06;;;;;;;;;;;;;;;;;;5095814;28;20239;-77
2023/01/19 07:54:34;;;;;;;;;;;;;;;;;;5093053;28;19995;-77
2023/01/19 07:57:00;;;;;;;;;;;;;;;;;;5100628;28;19918;-76
2023/01/19 07:59:29;;;;;;;;;;;;;;;;;;5113098;28;19915;-76
2023/01/19 08:01:56;;;;;;;;;;;;;;;;;;5095382;28;20286;-76
2023/01/19 08:04:25;;;;;;;;;;;;;;;;;;5094523;28;20334;-77
2023/01/19 08:06:58;;;;;;;;;;;;;;;;;;5112693;28;19907;-76
2023/01/19 08:09:24;;;;;;;;;;;;;;;;;;5113423;28;20270;-77
2023/01/19 08:11:50;;;;;;;;;;;;;;;;;;5112092;28;19919;-76
2023/01/19 08:14:16;;;;;;;;;;;;;;;;;;5113477;28;20002;-79
2023/01/19 08:16:44;;;;;;;;;;;;;;;;;;5113726;28;19942;-79
2023/01/19 08:19:10;;;;;;;;;;;;;;;;;;5113280;28;19915;-77
2023/01/19 08:21:37;;;;;;;;;;;;;;;;;;5114468;28;19903;-79
2023/01/19 08:24:03;;;;;;;;;;;;;;;;;;5113358;28;19911;-78
2023/01/19 08:26:29;;;;;;;;;;;;;;;;;;5094738;28;20289;-77
2023/01/19 08:28:55;;;;;;;;;;;;;;;;;;5112763;28;20411;-78
2023/01/19 08:31:21;;;;;;;;;;;;;;;;;;5113655;28;19957;-77
2023/01/19 08:33:47;;;;;;;;;;;;;;;;;;5112954;28;19908;-77
2023/01/19 08:36:13;;;;;;;;;;;;;;;;;;5094638;28;19903;-77
2023/01/19 08:38:42;;;;;;;;;;;;;;;;;;5112487;28;19908;-77
2023/01/19 08:41:10;;;;;;;;;;;;;;;;;;5111831;28;20064;-79
2023/01/19 08:43:39;;;;;;;;;;;;;;;;;;5112565;28;20015;-78
2023/01/19 08:46:08;;;;;;;;;;;;;;;;;;5093993;28;20006;-76
2023/01/19 08:48:34;;;;;;;;;;;;;;;;;;5112192;28;20013;-77
2023/01/19 08:51:00;;;;;;;;;;;;;;;;;;5112573;28;19946;-76
2023/01/19 08:53:25;;;;;;;;;;;;;;;;;;5111008;28;19964;-77
2023/01/19 08:55:51;;;;;;;;;;;;;;;;;;5112336;28;20421;-77
2023/01/19 08:58:17;;;;;;;;;;;;;;;;;;5112297;28;19924;-76
2023/01/19 09:00:43;;;;;;;;;;;;;;;;;;5112152;28;19965;-76
2023/01/19 09:03:09;;;;;;;;;;;;;;;;;;5110866;28;19950;-77
2023/01/19 09:05:36;;;;;;;;;;;;;;;;;;5111042;28;19907;-77
2023/01/19 09:08:02;;;;;;;;;;;;;;;;;;5112006;28;19908;-77
2023/01/19 09:10:30;;;;;;;;;;;;;;;;;;5112719;28;19911;-76
2023/01/19 09:12:58;;;;;;;;;;;;;;;;;;5113393;28;19904;-77
2023/01/19 09:15:24;;;;;;;;;;;;;;;;;;5113097;28;20353;-77
2023/01/19 09:17:50;;;;;;;;;;;;;;;;;;5112106;28;20285;-77
2023/01/19 09:20:16;;;;;;;;;;;;;;;;;;5115352;28;19911;-77
2023/01/19 09:22:42;;;;;;;;;;;;;;;;;;5094884;28;19926;-77
2023/01/19 09:25:08;;;;;;;;;;;;;;;;;;5112726;28;19949;-78
2023/01/19 09:27:34;;;;;;;;;;;;;;;;;;5112258;28;19910;-77
2023/01/19 09:30:00;;;;;;;;;;;;;;;;;;5112299;28;19908;-77
2023/01/19 09:32:28;;;;;;;;;;;;;;;;;;5111382;28;19930;-77
2023/01/19 09:34:55;;;;;;;;;;;;;;;;;;5093122;28;19911;-77
2023/01/19 09:37:21;;;;;;;;;;;;;;;;;;5112334;28;19950;-77
2023/01/19 09:39:47;;;;;;;;;;;;;;;;;;5094087;28;19955;-78
2023/01/19 09:42:13;;;;;;;;;;;;;;;;;;5112040;28;20289;-77
2023/01/19 09:44:38;;;;;;;;;;;;;;;;;;5093804;28;19911;-77
2023/01/19 09:47:04;;;;;;;;;;;;;;;;;;5093319;28;19912;-77
2023/01/19 09:49:30;;;;;;;;;;;;;;;;;;5111459;28;19912;-77
2023/01/19 09:51:56;;;;;;;;;;;;;;;;;;5108493;28;19935;-77
2023/01/19 09:54:22;;;;;;;;;;;;;;;;;;5101626;28;20442;-77
2023/01/19 09:56:48;;;;;;;;;;;;;;;;;;5097865;28;19998;-77
2023/01/19 09:59:14;;;;;;;;;;;;;;;;;;5108966;28;19919;-77
2023/01/19 10:01:40;;;;;;;;;;;;;;;;;;5114284;28;20365;-77
2023/01/19 10:04:06;;;;;;;;;;;;;;;;;;5114050;28;19933;-77
2023/01/19 10:06:34;;;;;;;;;;;;;;;;;;5089825;28;19907;-78
2023/01/19 10:09:02;;;;;;;;;;;;;;;;;;5084077;28;19912;-77
2023/01/19 10:11:28;;;;;;;;;;;;;;;;;;5113582;28;19908;-77
2023/01/19 10:13:54;;;;;;;;;;;;;;;;;;5099151;28;19939;-78
2023/01/19 10:16:20;;;;;;;;;;;;;;;;;;5103060;28;19916;-77
2023/01/19 10:18:46;;;;;;;;;;;;;;;;;;5108283;28;19947;-77
2023/01/19 10:21:12;;;;;;;;;;;;;;;;;;5112498;28;19911;-76
2023/01/19 10:23:38;;;;;;;;;;;;;;;;;;5116162;28;20434;-77
2023/01/19 10:26:04;;;;;;;;;;;;;;;;;;5109392;28;19915;-78
2023/01/19 10:28:30;;;;;;;;;;;;;;;;;;5104218;28;19915;-76
2023/01/19 10:30:56;;;;;;;;;;;;;;;;;;5104708;28;19907;-77
2023/01/19 10:33:22;;;;;;;;;;;;;;;;;;5115665;28;20002;-76
2023/01/19 10:35:48;;;;;;;;;;;;;;;;;;5114356;28;19914;-76
2023/01/19 10:38:14;;;;;;;;;;;;;;;;;;5109286;28;19908;-77
2023/01/19 10:40:40;;;;;;;;;;;;;;;;;;5094401;28;19965;-76
2023/01/19 10:43:06;;;;;;;;;;;;;;;;;;5104393;28;20002;-77
2023/01/19 10:45:34;;;;;;;;;;;;;;;;;;5113292;28;20254;-76
2023/01/19 10:48:00;;;;;;;;;;;;;;;;;;5115475;28;20052;-76
2023/01/19 10:50:26;;;;;;;;;;;;;;;;;;5113294;28;20038;-76
2023/01/19 10:52:54;;;;;;;;;;;;;;;;;;5100099;28;20380;-77
2023/01/19 10:55:20;;;;;;;;;;;;;;;;;;5098284;28;19912;-77
2023/01/19 10:57:47;;;;;;;;;;;;;;;;;;5112716;28;19923;-77
2023/01/19 11:00:13;;;;;;;;;;;;;;;;;;5109421;28;19934;-76
2023/01/19 11:02:39;;;;;;;;;;;;;;;;;;5114372;28;20250;-78
2023/01/19 11:05:05;;;;;;;;;;;;;;;;;;5114153;28;19922;-78
2023/01/19 11:07:34;;;;;;;;;;;;;;;;;;5115842;28;19912;-77
2023/01/19 11:10:00;;;;;;;;;;;;;;;;;;5097793;28;19908;-77
2023/01/19 11:12:26;;;;;;;;;;;;;;;;;;5106403;28;19914;-79
2023/01/19 11:14:52;;;;;;;;;;;;;;;;;;5084274;28;19953;-77
2023/01/19 11:17:18;;;;;;;;;;;;;;;;;;5110571;28;19926;-76
2023/01/19 11:19:44;;;;;;;;;;;;;;;;;;5110917;28;20010;-78
2023/01/19 11:22:10;;;;;;;;;;;;;;;;;;5093942;28;19908;-77
2023/01/19 11:24:36;;;;;;;;;;;;;;;;;;5111118;28;19915;-77
2023/01/19 11:27:02;;;;;;;;;;;;;;;;;;5104992;28;19908;-77
2023/01/19 11:29:28;;;;;;;;;;;;;;;;;;5093590;28;19904;-77
2023/01/19 11:31:56;;;;;;;;;;;;;;;;;;5102320;28;19908;-77
2023/01/19 11:34:22;;;;;;;;;;;;;;;;;;5102728;28;20277;-77
2023/01/19 11:36:49;;;;;;;;;;;;;;;;;;5113260;28;19914;-77
2023/01/19 11:39:15;;;;;;;;;;;;;;;;;;5111677;28;20253;-76
2023/01/19 11:41:41;;;;;;;;;;;;;;;;;;5093037;28;19911;-77
2023/01/19 11:44:07;;;;;;;;;;;;;;;;;;5107279;28;19907;-77
2023/01/19 11:46:33;;;;;;;;;;;;;;;;;;5099406;28;19908;-77
2023/01/19 11:49:00;;;;;;;;;;;;;;;;;;5102037;28;19908;-77
2023/01/19 11:51:26;;;;;;;;;;;;;;;;;;5111855;28;19947;-77
2023/01/19 11:53:52;;;;;;;;;;;;;;;;;;5108742;28;19958;-77
2023/01/19 11:56:21;;;;;;;;;;;;;;;;;;5099534;28;19946;-77
2023/01/19 11:58:47;;;;;;;;;;;;;;;;;;5102086;28;19919;-77
2023/01/19 12:01:13;;;;;;;;;;;;;;;;;;5113009;28;19911;-77
2023/01/19 12:03:41;;;;;;;;;;;;;;;;;;5104271;28;19911;-77
2023/01/19 12:06:07;;;;;;;;;;;;;;;;;;5095460;28;19912;-77
2023/01/19 12:08:36;;;;;;;;;;;;;;;;;;5093727;28;20415;-77
2023/01/19 12:11:02;;;;;;;;;;;;;;;;;;5112527;28;19907;-77
2023/01/19 12:13:29;;;;;;;;;;;;;;;;;;5113072;28;19911;-76
2023/01/19 12:15:56;;;;;;;;;;;;;;;;;;5094423;28;19904;-76
2023/01/19 12:18:22;;;;;;;;;;;;;;;;;;5112130;28;19908;-77
2023/01/19 12:20:50;;;;;;;;;;;;;;;;;;5109824;28;20285;-76
2023/01/19 12:23:16;;;;;;;;;;;;;;;;;;5112415;28;19904;-77
2023/01/19 12:25:42;;;;;;;;;;;;;;;;;;5109881;28;19915;-77
2023/01/19 12:28:08;;;;;;;;;;;;;;;;;;5108340;28;20369;-77
2023/01/19 12:30:37;;;;;;;;;;;;;;;;;;5092598;28;19911;-77
2023/01/19 12:33:02;;;;;;;;;;;;;;;;;;5101408;28;19904;-76
2023/01/19 12:35:28;;;;;;;;;;;;;;;;;;5110825;28;19915;-77
2023/01/19 12:37:56;;;;;;;;;;;;;;;;;;5111670;28;20599;-77
2023/01/19 12:40:22;;;;;;;;;;;;;;;;;;5102293;28;20429;-77
2023/01/19 12:42:48;;;;;;;;;;;;;;;;;;5115784;28;19950;-77
2023/01/19 12:45:14;;;;;;;;;;;;;;;;;;5114303;28;20358;-78
2023/01/19 12:47:40;;;;;;;;;;;;;;;;;;5095214;28;19908;-76
2023/01/19 12:50:06;;;;;;;;;;;;;;;;;;5091655;28;19907;-77
2023/01/19 12:52:32;;;;;;;;;;;;;;;;;;5110403;28;20562;-78
2023/01/19 12:55:06;;;;;;;;;;;;;;;;;;5094502;28;20006;-76
2023/01/19 12:57:32;;;;;;;;;;;;;;;;;;5096301;28;19916;-77
2023/01/19 12:59:58;;;;;;;;;;;;;;;;;;5113488;28;19919;-77
2023/01/19 13:02:26;;;;;;;;;;;;;;;;;;5112240;28;19907;-77
2023/01/19 13:04:52;;;;;;;;;;;;;;;;;;5094263;28;19935;-77
2023/01/19 13:07:19;;;;;;;;;;;;;;;;;;5112151;28;20373;-78
2023/01/19 13:09:45;;;;;;;;;;;;;;;;;;5094787;28;19904;-78
2023/01/19 13:12:10;;;;;;;;;;;;;;;;;;5105384;28;19919;-78
2023/01/19 13:14:36;;;;;;;;;;;;;;;;;;5105836;28;20358;-78
2023/01/19 13:17:02;;;;;;;;;;;;;;;;;;5098841;28;19952;-77
2023/01/19 13:19:28;;;;;;;;;;;;;;;;;;5081618;28;19907;-76
2023/01/19 13:21:54;;;;;;;;;;;;;;;;;;5093165;28;19914;-77
2023/01/19 13:24:23;;;;;;;;;;;;;;;;;;5097412;28;19915;-77
2023/01/19 13:26:49;;;;;;;;;;;;;;;;;;5093930;28;19904;-78
2023/01/19 13:29:15;;;;;;;;;;;;;;;;;;5107571;28;19960;-77
2023/01/19 13:31:41;;;;;;;;;;;;;;;;;;5104441;28;19911;-77
2023/01/19 13:34:07;;;;;;;;;;;;;;;;;;5115111;28;19910;-78
2023/01/19 13:36:33;;;;;;;;;;;;;;;;;;5114443;28;19908;-77
2023/01/19 13:38:59;;;;;;;;;;;;;;;;;;5115583;28;20288;-77
2023/01/19 13:41:24;;;;;;;;;;;;;;;;;;5096774;28;19982;-76
2023/01/19 13:43:50;;;;;;;;;;;;;;;;;;5096800;28;19995;-76
2023/01/19 13:46:17;;;;;;;;;;;;;;;;;;5112193;28;19907;-75
2023/01/19 13:48:46;;;;;;;;;;;;;;;;;;5112232;28;19915;-77
2023/01/19 13:51:11;;;;;;;;;;;;;;;;;;5108761;28;19915;-77
2023/01/19 13:53:37;;;;;;;;;;;;;;;;;;5106825;28;19915;-77
2023/01/19 13:56:03;;;;;;;;;;;;;;;;;;5115558;28;19904;-77
2023/01/19 13:58:30;;;;;;;;;;;;;;;;;;5096882;28;19923;-77
2023/01/19 14:00:56;;;;;;;;;;;;;;;;;;5110927;28;20368;-77
2023/01/19 14:03:22;;;;;;;;;;;;;;;;;;5111103;28;20002;-77
2023/01/19 14:05:48;;;;;;;;;;;;;;;;;;5115816;28;20338;-78
2023/01/19 14:08:17;;;;;;;;;;;;;;;;;;5115174;28;19908;-77
2023/01/19 14:10:45;;;;;;;;;;;;;;;;;;5111452;28;19904;-77
2023/01/19 14:13:11;;;;;;;;;;;;;;;;;;5111109;28;19958;-76
2023/01/19 14:15:39;;;;;;;;;;;;;;;;;;5103519;28;19946;-77
2023/01/19 14:18:05;;;;;;;;;;;;;;;;;;5096359;28;19990;-78
2023/01/19 14:20:35;;;;;;;;;;;;;;;;;;5092372;28;20010;-78
2023/01/19 14:23:03;;;;;;;;;;;;;;;;;;5086000;28;19908;-78
2023/01/19 14:25:29;;;;;;;;;;;;;;;;;;5104656;28;19912;-78
2023/01/19 14:27:58;;;;;;;;;;;;;;;;;;5077048;28;20068;-78
2023/01/19 14:30:24;;;;;;;;;;;;;;;;;;5090715;28;19921;-77
2023/01/19 14:32:53;;;;;;;;;;;;;;;;;;5108761;28;19989;-78
2023/01/19 14:35:19;;;;;;;;;;;;;;;;;;5113191;28;20373;-78
2023/01/19 14:37:46;;;;;;;;;;;;;;;;;;5100967;28;19973;-78
2023/01/19 14:40:14;;;;;;;;;;;;;;;;;;5113282;28;19908;-78
2023/01/19 14:42:40;;;;;;;;;;;;;;;;;;5088240;28;20311;-77
2023/01/19 14:45:05;;;;;;;;;;;;;;;;;;5105169;28;19915;-77
2023/01/19 14:47:31;;;;;;;;;;;;;;;;;;5089049;28;19941;-77
2023/01/19 14:49:59;;;;;;;;;;;;;;;;;;5114412;28;19907;-76
2023/01/19 14:52:25;;;;;;;;;;;;;;;;;;5105755;28;19911;-77
2023/01/19 14:54:59;;;;;;;;;;;;;;;;;;5111546;28;19961;-77
2023/01/19 14:57:25;;;;;;;;;;;;;;;;;;5114911;28;19926;-77
2023/01/19 14:59:51;;;;;;;;;;;;;;;;;;5086836;28;19981;-77
2023/01/19 15:02:17;;;;;;;;;;;;;;;;;;5097830;28;19908;-77
2023/01/19 15:04:43;;;;;;;;;;;;;;;;;;5098579;28;20417;-77
2023/01/19 15:07:09;;;;;;;;;;;;;;;;;;5094255;28;19991;-77
2023/01/19 15:09:35;;;;;;;;;;;;;;;;;;5097586;28;19939;-76
2023/01/19 15:12:03;;;;;;;;;;;;;;;;;;5109533;28;19918;-76
2023/01/19 15:14:29;;;;;;;;;;;;;;;;;;5095759;28;19911;-76
2023/01/19 15:16:57;;;;;;;;;;;;;;;;;;5107217;28;19991;-77
2023/01/19 15:19:25;;;;;;;;;;;;;;;;;;5106234;28;19953;-76
2023/01/19 15:21:51;;;;;;;;;;;;;;;;;;5095982;28;20344;-79
2023/01/19 15:24:17;;;;;;;;;;;;;;;;;;5114518;28;19907;-80
2023/01/19 15:26:43;;;;;;;;;;;;;;;;;;5110462;28;20261;-79
2023/01/19 15:29:09;;;;;;;;;;;;;;;;;;5106573;28;20424;-79
2023/01/19 15:31:35;;;;;;;;;;;;;;;;;;5104904;28;19914;-79
2023/01/19 15:34:01;;;;;;;;;;;;;;;;;;5079414;28;19957;-80
2023/01/19 15:36:27;;;;;;;;;;;;;;;;;;5114541;28;19904;-79
2023/01/19 15:38:54;;;;;;;;;;;;;;;;;;5115526;28;19907;-79
2023/01/19 15:41:20;;;;;;;;;;;;;;;;;;5097388;28;19967;-79
2023/01/19 15:43:46;;;;;;;;;;;;;;;;;;5109387;28;20344;-78
2023/01/19 15:46:14;;;;;;;;;;;;;;;;;;5107505;28;19908;-79
2023/01/19 15:48:42;;;;;;;;;;;;;;;;;;5105454;28;20418;-80
2023/01/19 15:51:08;;;;;;;;;;;;;;;;;;5084860;28;19915;-79
2023/01/19 15:53:34;;;;;;;;;;;;;;;;;;5095956;28;20479;-81
2023/01/19 15:56:00;;;;;;;;;;;;;;;;;;5111900;28;19912;-81
2023/01/19 15:58:26;;;;;;;;;;;;;;;;;;5098300;28;20083;-79
2023/01/19 16:00:52;;;;;;;;;;;;;;;;;;5117796;28;19941;-82
2023/01/19 16:03:18;;;;;;;;;;;;;;;;;;5092105;28;19966;-80
2023/01/19 16:05:45;;;;;;;;;;;;;;;;;;5111271;28;19962;-80
2023/01/19 16:08:11;;;;;;;;;;;;;;;;;;5096791;28;19903;-80
2023/01/19 16:10:37;;;;;;;;;;;;;;;;;;5092167;28;19915;-80
2023/01/19 16:13:03;;;;;;;;;;;;;;;;;;5096922;28;19908;-81
2023/01/19 16:15:29;;;;;;;;;;;;;;;;;;5099264;28;19908;-81
2023/01/19 16:17:54;;;;;;;;;;;;;;;;;;5107364;28;19957;-81
2023/01/19 16:20:20;;;;;;;;;;;;;;;;;;5084368;28;19923;-81
2023/01/19 16:22:46;;;;;;;;;;;;;;;;;;5108974;28;19908;-80
2023/01/19 16:25:12;;;;;;;;;;;;;;;;;;5111088;28;19998;-79
2023/01/19 16:27:38;;;;;;;;;;;;;;;;;;5114942;28;19915;-80
2023/01/19 16:30:04;;;;;;;;;;;;;;;;;;5080921;28;19923;-80
2023/01/19 16:32:30;;;;;;;;;;;;;;;;;;5110284;28;19908;-80
2023/01/19 16:34:56;;;;;;;;;;;;;;;;;;5086134;28;19957;-79
2023/01/19 16:37:22;;;;;;;;;;;;;;;;;;5095291;28;20212;-80
2023/01/19 16:39:50;;;;;;;;;;;;;;;;;;5097001;28;20353;-80
2023/01/19 16:42:16;;;;;;;;;;;;;;;;;;5104225;28;19908;-80
2023/01/19 16:44:42;;;;;;;;;;;;;;;;;;5121437;28;19911;-79
2023/01/19 16:47:10;;;;;;;;;;;;;;;;;;5099230;28;19908;-80
2023/01/19 16:49:36;;;;;;;;;;;;;;;;;;5099240;28;19904;-79
2023/01/19 16:52:02;;;;;;;;;;;;;;;;;;5113965;28;20003;-80